Aaron, Georgia
Current Conditions -  °F | °C
As of 3:15 AM on Saturday 01 Nov 2014 (Local Time) from KTBR Reporting Station
Overcast Overcast  
Wind Chill: 53°   Ceiling: 2700
Heat Index: 53°   Visibility: 10mi
Dew Point: 44°   Wind: 13mph
Humidity: 72%   Direction: 310°NW
Pressure: 29.8"   Gusts: 23mph
Location:  32.5686°N, 81.9052°W
Report Text: KTBR 010715Z AUTO 31011G20KT 10SM BKN027 BKN065 OVC090 12/07 A2980 RMK AO2 T01150067 TSNO
Loading
Personal Weather Stations






























Interactive Weather Map
Tropical Storm Tracking
New forecast layout! Learn more

10-Day Weather Forecast

Advertisements
Track Severe Weather on mobile